Ritter, Iowa
Current Conditions -  °F | °C
As of 12:15 PM on Thursday 18 Dec 2014 (Local Time) from KSHL Reporting Station
Overcast Overcast  
Wind Chill: 16°   Ceiling: 4400
Heat Index: 25°   Visibility: 10mi
Dew Point: 23°   Wind: 8mph
Humidity: 93%   Direction: 160°SSE
Pressure: 30.2"   Gusts: NA
Location:  43.1723°N, 95.8037°W
Report Text: KSHL 181815Z AUTO 16007KT 10SM OVC044 M04/M05 A3020 RMK AO2
Loading
Personal Weather Stations






























Interactive Weather Map New forecast layout! Learn more

10-Day Weather Forecast

Advertisements
Track Severe Weather on mobile